sensor_id;sensor_type;location;lat;lon;timestamp;P1;durP1;ratioP1;P2;durP2;ratioP2
11042;SDS011;5574;48.786;10.120;2023-04-09T00:00:01;6.53;;;5.93;;
11042;SDS011;5574;48.786;10.120;2023-04-09T00:02:27;6.10;;;5.57;;
11042;SDS011;5574;48.786;10.120;2023-04-09T00:04:54;6.30;;;5.70;;
11042;SDS011;5574;48.786;10.120;2023-04-09T00:07:22;5.90;;;5.40;;
11042;SDS011;5574;48.786;10.120;2023-04-09T00:09:49;6.47;;;5.60;;
11042;SDS011;5574;48.786;10.120;2023-04-09T00:12:15;6.20;;;5.60;;
11042;SDS011;5574;48.786;10.120;2023-04-09T00:14:42;14.80;;;12.13;;
11042;SDS011;5574;48.786;10.120;2023-04-09T00:17:09;10.27;;;9.20;;
11042;SDS011;5574;48.786;10.120;2023-04-09T00:19:35;6.73;;;5.97;;
11042;SDS011;5574;48.786;10.120;2023-04-09T00:22:02;7.80;;;7.00;;
11042;SDS011;5574;48.786;10.120;2023-04-09T00:24:30;7.37;;;6.60;;
11042;SDS011;5574;48.786;10.120;2023-04-09T00:26:57;7.07;;;6.43;;
11042;SDS011;5574;48.786;10.120;2023-04-09T00:29:23;7.63;;;6.80;;
11042;SDS011;5574;48.786;10.120;2023-04-09T00:31:51;6.47;;;5.83;;
11042;SDS011;5574;48.786;10.120;2023-04-09T00:34:17;6.73;;;6.13;;
11042;SDS011;5574;48.786;10.120;2023-04-09T00:36:44;6.47;;;5.87;;
11042;SDS011;5574;48.786;10.120;2023-04-09T00:39:11;6.93;;;6.23;;
11042;SDS011;5574;48.786;10.120;2023-04-09T00:41:39;6.90;;;6.20;;
11042;SDS011;5574;48.786;10.120;2023-04-09T00:44:05;6.97;;;6.27;;
11042;SDS011;5574;48.786;10.120;2023-04-09T00:46:32;6.27;;;5.67;;
11042;SDS011;5574;48.786;10.120;2023-04-09T00:48:59;5.93;;;5.33;;
11042;SDS011;5574;48.786;10.120;2023-04-09T00:51:26;6.83;;;6.23;;
11042;SDS011;5574;48.786;10.120;2023-04-09T00:53:53;6.10;;;5.50;;
11042;SDS011;5574;48.786;10.120;2023-04-09T00:56:21;6.27;;;5.57;;
11042;SDS011;5574;48.786;10.120;2023-04-09T00:58:49;5.83;;;5.33;;
11042;SDS011;5574;48.786;10.120;2023-04-09T01:01:16;5.80;;;5.17;;
11042;SDS011;5574;48.786;10.120;2023-04-09T01:03:43;6.13;;;5.27;;
11042;SDS011;5574;48.786;10.120;2023-04-09T01:06:11;6.50;;;5.50;;
11042;SDS011;5574;48.786;10.120;2023-04-09T01:08:54;6.13;;;5.53;;
11042;SDS011;5574;48.786;10.120;2023-04-09T01:11:30;6.13;;;5.53;;
11042;SDS011;5574;48.786;10.120;2023-04-09T01:14:07;6.93;;;6.00;;
11042;SDS011;5574;48.786;10.120;2023-04-09T01:16:43;6.27;;;5.67;;
11042;SDS011;5574;48.786;10.120;2023-04-09T01:19:16;5.80;;;5.30;;
11042;SDS011;5574;48.786;10.120;2023-04-09T01:21:49;6.20;;;5.60;;
11042;SDS011;5574;48.786;10.120;2023-04-09T01:24:20;5.90;;;5.37;;
11042;SDS011;5574;48.786;10.120;2023-04-09T01:27:02;5.77;;;5.27;;
11042;SDS011;5574;48.786;10.120;2023-04-09T01:29:33;6.03;;;5.43;;
11042;SDS011;5574;48.786;10.120;2023-04-09T01:32:04;6.10;;;5.50;;
11042;SDS011;5574;48.786;10.120;2023-04-09T01:34:32;6.80;;;5.60;;
11042;SDS011;5574;48.786;10.120;2023-04-09T01:37:02;6.37;;;5.77;;
11042;SDS011;5574;48.786;10.120;2023-04-09T01:39:29;6.23;;;5.53;;
11042;SDS011;5574;48.786;10.120;2023-04-09T01:41:57;6.27;;;5.60;;
11042;SDS011;5574;48.786;10.120;2023-04-09T01:44:25;6.13;;;5.53;;
11042;SDS011;5574;48.786;10.120;2023-04-09T01:46:55;6.30;;;5.60;;
11042;SDS011;5574;48.786;10.120;2023-04-09T01:49:24;6.43;;;5.60;;
11042;SDS011;5574;48.786;10.120;2023-04-09T01:51:51;6.17;;;5.57;;
11042;SDS011;5574;48.786;10.120;2023-04-09T01:54:19;6.50;;;5.90;;
11042;SDS011;5574;48.786;10.120;2023-04-09T01:56:46;6.23;;;5.63;;
11042;SDS011;5574;48.786;10.120;2023-04-09T01:59:13;6.67;;;6.07;;
11042;SDS011;5574;48.786;10.120;2023-04-09T02:01:42;6.47;;;5.87;;
11042;SDS011;5574;48.786;10.120;2023-04-09T02:04:15;6.43;;;5.70;;
11042;SDS011;5574;48.786;10.120;2023-04-09T02:06:47;6.47;;;5.87;;
11042;SDS011;5574;48.786;10.120;2023-04-09T02:09:22;7.37;;;6.00;;
11042;SDS011;5574;48.786;10.120;2023-04-09T02:11:50;6.70;;;6.00;;
11042;SDS011;5574;48.786;10.120;2023-04-09T02:14:18;6.57;;;5.70;;
11042;SDS011;5574;48.786;10.120;2023-04-09T02:16:47;6.73;;;6.00;;
11042;SDS011;5574;48.786;10.120;2023-04-09T02:19:15;6.87;;;6.20;;
11042;SDS011;5574;48.786;10.120;2023-04-09T02:21:42;6.50;;;5.90;;
11042;SDS011;5574;48.786;10.120;2023-04-09T02:24:09;7.10;;;6.33;;
11042;SDS011;5574;48.786;10.120;2023-04-09T02:26:35;6.77;;;6.17;;
11042;SDS011;5574;48.786;10.120;2023-04-09T02:29:02;7.30;;;6.30;;
11042;SDS011;5574;48.786;10.120;2023-04-09T02:31:29;6.80;;;6.13;;
11042;SDS011;5574;48.786;10.120;2023-04-09T02:33:56;7.20;;;6.50;;
11042;SDS011;5574;48.786;10.120;2023-04-09T02:36:24;7.20;;;6.50;;
11042;SDS011;5574;48.786;10.120;2023-04-09T02:38:51;6.43;;;5.83;;
11042;SDS011;5574;48.786;10.120;2023-04-09T02:41:18;7.03;;;6.30;;
11042;SDS011;5574;48.786;10.120;2023-04-09T02:43:45;7.67;;;6.70;;
11042;SDS011;5574;48.786;10.120;2023-04-09T02:46:11;7.33;;;6.57;;
11042;SDS011;5574;48.786;10.120;2023-04-09T02:48:38;8.50;;;7.00;;
11042;SDS011;5574;48.786;10.120;2023-04-09T02:51:05;7.70;;;7.00;;
11042;SDS011;5574;48.786;10.120;2023-04-09T02:53:33;7.47;;;6.77;;
11042;SDS011;5574;48.786;10.120;2023-04-09T02:56:01;8.07;;;6.80;;
11042;SDS011;5574;48.786;10.120;2023-04-09T02:58:28;7.30;;;6.60;;
11042;SDS011;5574;48.786;10.120;2023-04-09T03:00:55;7.43;;;6.73;;
11042;SDS011;5574;48.786;10.120;2023-04-09T03:03:22;7.43;;;6.73;;
11042;SDS011;5574;48.786;10.120;2023-04-09T03:05:48;7.20;;;6.50;;
11042;SDS011;5574;48.786;10.120;2023-04-09T03:08:15;8.20;;;7.40;;
11042;SDS011;5574;48.786;10.120;2023-04-09T03:10:43;7.67;;;6.87;;
11042;SDS011;5574;48.786;10.120;2023-04-09T03:13:10;8.93;;;7.47;;
11042;SDS011;5574;48.786;10.120;2023-04-09T03:15:36;8.20;;;7.33;;
11042;SDS011;5574;48.786;10.120;2023-04-09T03:18:03;7.50;;;6.80;;
11042;SDS011;5574;48.786;10.120;2023-04-09T03:20:30;7.67;;;6.97;;
11042;SDS011;5574;48.786;10.120;2023-04-09T03:22:56;8.10;;;7.13;;
11042;SDS011;5574;48.786;10.120;2023-04-09T03:25:23;8.03;;;7.23;;
11042;SDS011;5574;48.786;10.120;2023-04-09T03:27:51;7.37;;;6.67;;
11042;SDS011;5574;48.786;10.120;2023-04-09T03:30:18;7.23;;;6.47;;
11042;SDS011;5574;48.786;10.120;2023-04-09T03:32:45;7.23;;;6.53;;
11042;SDS011;5574;48.786;10.120;2023-04-09T03:35:11;8.17;;;7.37;;
11042;SDS011;5574;48.786;10.120;2023-04-09T03:37:38;7.90;;;7.10;;
11042;SDS011;5574;48.786;10.120;2023-04-09T03:40:05;8.53;;;7.63;;
11042;SDS011;5574;48.786;10.120;2023-04-09T03:42:32;7.67;;;6.87;;
11042;SDS011;5574;48.786;10.120;2023-04-09T03:45:03;8.27;;;7.43;;
11042;SDS011;5574;48.786;10.120;2023-04-09T03:47:30;9.70;;;7.00;;
11042;SDS011;5574;48.786;10.120;2023-04-09T03:49:58;8.43;;;7.43;;
11042;SDS011;5574;48.786;10.120;2023-04-09T03:52:24;7.30;;;6.60;;
11042;SDS011;5574;48.786;10.120;2023-04-09T03:54:51;8.37;;;7.43;;
11042;SDS011;5574;48.786;10.120;2023-04-09T03:57:18;7.53;;;6.73;;
11042;SDS011;5574;48.786;10.120;2023-04-09T03:59:44;7.70;;;6.60;;
11042;SDS011;5574;48.786;10.120;2023-04-09T04:02:13;7.67;;;6.97;;
11042;SDS011;5574;48.786;10.120;2023-04-09T04:04:40;8.27;;;7.30;;
11042;SDS011;5574;48.786;10.120;2023-04-09T04:07:06;8.30;;;7.50;;
11042;SDS011;5574;48.786;10.120;2023-04-09T04:09:33;7.57;;;6.87;;
11042;SDS011;5574;48.786;10.120;2023-04-09T04:12:01;7.60;;;6.90;;
11042;SDS011;5574;48.786;10.120;2023-04-09T04:14:27;7.97;;;7.17;;
11042;SDS011;5574;48.786;10.120;2023-04-09T04:16:54;8.33;;;7.50;;
11042;SDS011;5574;48.786;10.120;2023-04-09T04:19:22;8.10;;;7.30;;
11042;SDS011;5574;48.786;10.120;2023-04-09T04:21:49;7.40;;;6.70;;
11042;SDS011;5574;48.786;10.120;2023-04-09T04:24:15;7.90;;;7.20;;
11042;SDS011;5574;48.786;10.120;2023-04-09T04:26:42;8.03;;;7.30;;
11042;SDS011;5574;48.786;10.120;2023-04-09T04:29:09;7.27;;;6.57;;
11042;SDS011;5574;48.786;10.120;2023-04-09T04:31:36;7.73;;;7.00;;
11042;SDS011;5574;48.786;10.120;2023-04-09T04:34:02;7.40;;;6.70;;
11042;SDS011;5574;48.786;10.120;2023-04-09T04:36:30;7.60;;;6.40;;
11042;SDS011;5574;48.786;10.120;2023-04-09T04:38:57;7.73;;;7.03;;
11042;SDS011;5574;48.786;10.120;2023-04-09T04:41:23;8.17;;;7.33;;
11042;SDS011;5574;48.786;10.120;2023-04-09T04:43:50;7.20;;;6.50;;
11042;SDS011;5574;48.786;10.120;2023-04-09T04:46:17;7.23;;;6.53;;
11042;SDS011;5574;48.786;10.120;2023-04-09T04:48:44;7.00;;;6.13;;
11042;SDS011;5574;48.786;10.120;2023-04-09T04:51:11;7.30;;;6.60;;
11042;SDS011;5574;48.786;10.120;2023-04-09T04:53:39;7.57;;;6.80;;
11042;SDS011;5574;48.786;10.120;2023-04-09T04:56:05;8.07;;;7.27;;
11042;SDS011;5574;48.786;10.120;2023-04-09T04:58:37;7.47;;;6.77;;
11042;SDS011;5574;48.786;10.120;2023-04-09T05:01:04;7.60;;;6.90;;
11042;SDS011;5574;48.786;10.120;2023-04-09T05:03:30;8.17;;;7.40;;
11042;SDS011;5574;48.786;10.120;2023-04-09T05:05:57;7.87;;;7.07;;
11042;SDS011;5574;48.786;10.120;2023-04-09T05:08:24;7.20;;;6.50;;
11042;SDS011;5574;48.786;10.120;2023-04-09T05:10:52;8.30;;;7.50;;
11042;SDS011;5574;48.786;10.120;2023-04-09T05:13:20;7.63;;;6.87;;
11042;SDS011;5574;48.786;10.120;2023-04-09T05:15:46;8.83;;;7.77;;
11042;SDS011;5574;48.786;10.120;2023-04-09T05:18:13;8.17;;;7.20;;
11042;SDS011;5574;48.786;10.120;2023-04-09T05:20:40;8.00;;;7.20;;
11042;SDS011;5574;48.786;10.120;2023-04-09T05:23:06;7.57;;;6.80;;
11042;SDS011;5574;48.786;10.120;2023-04-09T05:25:34;8.17;;;7.07;;
11042;SDS011;5574;48.786;10.120;2023-04-09T05:28:02;8.10;;;7.30;;
11042;SDS011;5574;48.786;10.120;2023-04-09T05:30:29;7.73;;;7.03;;
11042;SDS011;5574;48.786;10.120;2023-04-09T05:32:55;8.43;;;7.57;;
11042;SDS011;5574;48.786;10.120;2023-04-09T05:35:22;8.07;;;7.20;;
11042;SDS011;5574;48.786;10.120;2023-04-09T05:37:48;8.00;;;7.17;;
11042;SDS011;5574;48.786;10.120;2023-04-09T05:40:15;8.40;;;7.50;;
11042;SDS011;5574;48.786;10.120;2023-04-09T05:42:42;8.30;;;7.40;;
11042;SDS011;5574;48.786;10.120;2023-04-09T05:45:10;9.27;;;7.47;;
11042;SDS011;5574;48.786;10.120;2023-04-09T05:47:37;8.17;;;7.37;;
11042;SDS011;5574;48.786;10.120;2023-04-09T05:50:04;8.40;;;7.50;;
11042;SDS011;5574;48.786;10.120;2023-04-09T05:52:31;7.50;;;6.80;;
11042;SDS011;5574;48.786;10.120;2023-04-09T05:54:58;8.67;;;7.80;;
11042;SDS011;5574;48.786;10.120;2023-04-09T05:57:25;8.50;;;7.70;;
11042;SDS011;5574;48.786;10.120;2023-04-09T05:59:54;9.47;;;8.20;;
11042;SDS011;5574;48.786;10.120;2023-04-09T06:02:22;8.60;;;7.77;;
11042;SDS011;5574;48.786;10.120;2023-04-09T06:04:49;9.07;;;7.90;;
11042;SDS011;5574;48.786;10.120;2023-04-09T06:07:15;8.63;;;7.73;;
11042;SDS011;5574;48.786;10.120;2023-04-09T06:09:42;9.37;;;8.33;;
11042;SDS011;5574;48.786;10.120;2023-04-09T06:12:10;9.33;;;8.43;;
11042;SDS011;5574;48.786;10.120;2023-04-09T06:14:37;10.67;;;9.33;;
11042;SDS011;5574;48.786;10.120;2023-04-09T06:17:04;9.23;;;8.33;;
11042;SDS011;5574;48.786;10.120;2023-04-09T06:19:32;10.97;;;9.87;;
11042;SDS011;5574;48.786;10.120;2023-04-09T06:21:59;10.27;;;9.27;;
11042;SDS011;5574;48.786;10.120;2023-04-09T06:24:26;10.80;;;9.70;;
11042;SDS011;5574;48.786;10.120;2023-04-09T06:26:52;10.70;;;9.60;;
11042;SDS011;5574;48.786;10.120;2023-04-09T06:29:19;11.27;;;10.07;;
11042;SDS011;5574;48.786;10.120;2023-04-09T06:31:46;11.00;;;9.77;;
11042;SDS011;5574;48.786;10.120;2023-04-09T06:34:12;10.40;;;9.30;;
11042;SDS011;5574;48.786;10.120;2023-04-09T06:36:40;10.50;;;9.40;;
11042;SDS011;5574;48.786;10.120;2023-04-09T06:39:08;10.80;;;9.53;;
11042;SDS011;5574;48.786;10.120;2023-04-09T06:41:35;11.13;;;9.90;;
11042;SDS011;5574;48.786;10.120;2023-04-09T06:44:02;10.33;;;9.37;;
11042;SDS011;5574;48.786;10.120;2023-04-09T06:46:28;11.27;;;10.10;;
11042;SDS011;5574;48.786;10.120;2023-04-09T06:48:55;11.87;;;10.53;;
11042;SDS011;5574;48.786;10.120;2023-04-09T06:51:22;11.07;;;8.87;;
11042;SDS011;5574;48.786;10.120;2023-04-09T06:53:50;11.27;;;10.03;;
11042;SDS011;5574;48.786;10.120;2023-04-09T06:56:16;11.57;;;10.47;;
11042;SDS011;5574;48.786;10.120;2023-04-09T06:58:43;11.57;;;10.40;;
11042;SDS011;5574;48.786;10.120;2023-04-09T07:01:10;12.23;;;11.00;;
11042;SDS011;5574;48.786;10.120;2023-04-09T07:03:37;12.87;;;10.97;;
11042;SDS011;5574;48.786;10.120;2023-04-09T07:06:04;12.30;;;10.70;;
11042;SDS011;5574;48.786;10.120;2023-04-09T07:08:31;11.10;;;9.93;;
11042;SDS011;5574;48.786;10.120;2023-04-09T07:10:59;12.37;;;10.87;;
11042;SDS011;5574;48.786;10.120;2023-04-09T07:13:26;12.53;;;11.07;;
11042;SDS011;5574;48.786;10.120;2023-04-09T07:15:52;12.33;;;11.03;;
11042;SDS011;5574;48.786;10.120;2023-04-09T07:18:19;12.50;;;11.23;;
11042;SDS011;5574;48.786;10.120;2023-04-09T07:20:45;12.50;;;11.07;;
11042;SDS011;5574;48.786;10.120;2023-04-09T07:23:12;12.40;;;11.10;;
11042;SDS011;5574;48.786;10.120;2023-04-09T07:25:39;12.57;;;11.27;;
11042;SDS011;5574;48.786;10.120;2023-04-09T07:28:07;11.73;;;10.33;;
11042;SDS011;5574;48.786;10.120;2023-04-09T07:30:35;12.00;;;10.80;;
11042;SDS011;5574;48.786;10.120;2023-04-09T07:33:02;10.77;;;9.60;;
11042;SDS011;5574;48.786;10.120;2023-04-09T07:35:29;13.37;;;11.00;;
11042;SDS011;5574;48.786;10.120;2023-04-09T07:37:56;11.60;;;10.20;;
11042;SDS011;5574;48.786;10.120;2023-04-09T07:40:23;11.37;;;10.27;;
11042;SDS011;5574;48.786;10.120;2023-04-09T07:42:50;10.53;;;9.43;;
11042;SDS011;5574;48.786;10.120;2023-04-09T07:45:19;10.83;;;9.73;;
11042;SDS011;5574;48.786;10.120;2023-04-09T07:47:45;11.00;;;9.80;;
11042;SDS011;5574;48.786;10.120;2023-04-09T07:50:12;10.80;;;9.70;;
11042;SDS011;5574;48.786;10.120;2023-04-09T07:52:39;10.60;;;9.50;;
11042;SDS011;5574;48.786;10.120;2023-04-09T07:55:06;11.20;;;10.17;;
11042;SDS011;5574;48.786;10.120;2023-04-09T07:57:34;11.50;;;10.30;;
11042;SDS011;5574;48.786;10.120;2023-04-09T08:00:00;11.63;;;10.43;;
11042;SDS011;5574;48.786;10.120;2023-04-09T08:02:29;11.20;;;10.10;;
11042;SDS011;5574;48.786;10.120;2023-04-09T08:04:55;10.53;;;9.47;;
11042;SDS011;5574;48.786;10.120;2023-04-09T08:07:23;11.00;;;9.90;;
11042;SDS011;5574;48.786;10.120;2023-04-09T08:09:49;11.37;;;10.27;;
11042;SDS011;5574;48.786;10.120;2023-04-09T08:12:16;10.70;;;9.60;;
11042;SDS011;5574;48.786;10.120;2023-04-09T08:14:43;11.77;;;10.57;;
11042;SDS011;5574;48.786;10.120;2023-04-09T08:17:09;11.27;;;10.07;;
11042;SDS011;5574;48.786;10.120;2023-04-09T08:19:37;10.70;;;9.60;;
11042;SDS011;5574;48.786;10.120;2023-04-09T08:22:05;9.87;;;8.87;;
11042;SDS011;5574;48.786;10.120;2023-04-09T08:24:31;10.30;;;9.30;;
11042;SDS011;5574;48.786;10.120;2023-04-09T08:26:59;10.23;;;9.23;;
11042;SDS011;5574;48.786;10.120;2023-04-09T08:29:26;10.67;;;9.33;;
11042;SDS011;5574;48.786;10.120;2023-04-09T08:31:53;10.90;;;9.83;;
11042;SDS011;5574;48.786;10.120;2023-04-09T08:34:20;10.03;;;9.03;;
11042;SDS011;5574;48.786;10.120;2023-04-09T08:36:48;9.77;;;8.77;;
11042;SDS011;5574;48.786;10.120;2023-04-09T08:39:15;9.43;;;8.50;;
11042;SDS011;5574;48.786;10.120;2023-04-09T08:41:43;9.87;;;8.60;;
11042;SDS011;5574;48.786;10.120;2023-04-09T08:44:11;9.43;;;8.50;;
11042;SDS011;5574;48.786;10.120;2023-04-09T08:46:38;9.20;;;8.27;;
11042;SDS011;5574;48.786;10.120;2023-04-09T08:49:04;8.93;;;8.13;;
11042;SDS011;5574;48.786;10.120;2023-04-09T08:51:35;9.00;;;8.10;;
11042;SDS011;5574;48.786;10.120;2023-04-09T08:54:04;8.50;;;7.70;;
11042;SDS011;5574;48.786;10.120;2023-04-09T08:56:32;8.70;;;7.87;;
11042;SDS011;5574;48.786;10.120;2023-04-09T08:58:58;8.97;;;8.07;;
11042;SDS011;5574;48.786;10.120;2023-04-09T09:01:25;8.77;;;7.87;;
11042;SDS011;5574;48.786;10.120;2023-04-09T09:03:54;8.30;;;7.50;;
11042;SDS011;5574;48.786;10.120;2023-04-09T09:06:22;9.03;;;8.13;;
11042;SDS011;5574;48.786;10.120;2023-04-09T09:11:36;8.73;;;7.57;;
11042;SDS011;5574;48.786;10.120;2023-04-09T09:14:04;8.67;;;7.87;;
11042;SDS011;5574;48.786;10.120;2023-04-09T09:16:33;7.80;;;7.10;;
11042;SDS011;5574;48.786;10.120;2023-04-09T09:19:04;8.13;;;7.33;;
11042;SDS011;5574;48.786;10.120;2023-04-09T09:21:31;8.43;;;7.73;;
11042;SDS011;5574;48.786;10.120;2023-04-09T09:23:58;7.77;;;7.03;;
11042;SDS011;5574;48.786;10.120;2023-04-09T09:26:27;7.40;;;6.70;;
11042;SDS011;5574;48.786;10.120;2023-04-09T09:28:55;8.03;;;7.23;;
11042;SDS011;5574;48.786;10.120;2023-04-09T09:31:23;7.40;;;6.70;;
11042;SDS011;5574;48.786;10.120;2023-04-09T09:33:50;6.97;;;6.27;;
11042;SDS011;5574;48.786;10.120;2023-04-09T09:36:30;6.80;;;6.13;;
11042;SDS011;5574;48.786;10.120;2023-04-09T09:38:58;7.07;;;6.37;;
11042;SDS011;5574;48.786;10.120;2023-04-09T09:41:28;7.10;;;6.40;;
11042;SDS011;5574;48.786;10.120;2023-04-09T09:43:56;6.97;;;6.27;;
11042;SDS011;5574;48.786;10.120;2023-04-09T09:46:23;6.50;;;5.90;;
11042;SDS011;5574;48.786;10.120;2023-04-09T09:48:51;6.57;;;5.97;;
11042;SDS011;5574;48.786;10.120;2023-04-09T09:51:18;6.90;;;6.20;;
11042;SDS011;5574;48.786;10.120;2023-04-09T09:53:47;6.47;;;5.87;;
11042;SDS011;5574;48.786;10.120;2023-04-09T09:56:20;6.10;;;5.50;;
11042;SDS011;5574;48.786;10.120;2023-04-09T09:58:54;6.67;;;6.07;;
11042;SDS011;5574;48.786;10.120;2023-04-09T10:01:27;6.43;;;5.83;;
11042;SDS011;5574;48.786;10.120;2023-04-09T10:03:54;7.00;;;6.30;;
11042;SDS011;5574;48.786;10.120;2023-04-09T10:06:23;6.07;;;5.47;;
11042;SDS011;5574;48.786;10.120;2023-04-09T10:08:51;6.23;;;5.63;;
11042;SDS011;5574;48.786;10.120;2023-04-09T10:11:22;5.40;;;4.90;;
11042;SDS011;5574;48.786;10.120;2023-04-09T10:13:50;5.90;;;5.30;;
11042;SDS011;5574;48.786;10.120;2023-04-09T10:16:21;6.07;;;5.50;;
11042;SDS011;5574;48.786;10.120;2023-04-09T10:18:48;5.10;;;4.60;;
11042;SDS011;5574;48.786;10.120;2023-04-09T10:21:16;4.87;;;4.47;;
11042;SDS011;5574;48.786;10.120;2023-04-09T10:23:51;4.87;;;4.47;;
11042;SDS011;5574;48.786;10.120;2023-04-09T10:26:18;5.80;;;4.90;;
11042;SDS011;5574;48.786;10.120;2023-04-09T10:28:46;5.27;;;4.77;;
11042;SDS011;5574;48.786;10.120;2023-04-09T10:31:29;4.70;;;4.30;;
11042;SDS011;5574;48.786;10.120;2023-04-09T10:34:13;4.90;;;4.50;;
11042;SDS011;5574;48.786;10.120;2023-04-09T10:36:41;3.93;;;3.63;;
11042;SDS011;5574;48.786;10.120;2023-04-09T10:39:10;4.27;;;3.87;;
11042;SDS011;5574;48.786;10.120;2023-04-09T10:41:38;4.20;;;3.80;;
11042;SDS011;5574;48.786;10.120;2023-04-09T10:44:08;4.63;;;4.23;;
11042;SDS011;5574;48.786;10.120;2023-04-09T10:46:46;4.13;;;3.73;;
11042;SDS011;5574;48.786;10.120;2023-04-09T10:49:17;4.47;;;4.07;;
11042;SDS011;5574;48.786;10.120;2023-04-09T10:51:52;4.30;;;3.90;;
11042;SDS011;5574;48.786;10.120;2023-04-09T10:54:42;5.30;;;4.80;;
11042;SDS011;5574;48.786;10.120;2023-04-09T10:57:14;5.20;;;4.70;;
11042;SDS011;5574;48.786;10.120;2023-04-09T10:59:43;5.00;;;4.60;;
11042;SDS011;5574;48.786;10.120;2023-04-09T11:05:30;5.93;;;5.33;;
11042;SDS011;5574;48.786;10.120;2023-04-09T11:08:05;6.00;;;5.50;;
11042;SDS011;5574;48.786;10.120;2023-04-09T11:10:33;5.83;;;5.27;;
11042;SDS011;5574;48.786;10.120;2023-04-09T11:13:01;6.17;;;5.37;;
11042;SDS011;5574;48.786;10.120;2023-04-09T11:15:28;5.90;;;5.30;;
11042;SDS011;5574;48.786;10.120;2023-04-09T11:17:56;5.90;;;5.30;;
11042;SDS011;5574;48.786;10.120;2023-04-09T11:20:23;6.97;;;5.57;;
11042;SDS011;5574;48.786;10.120;2023-04-09T11:22:52;5.57;;;5.07;;
11042;SDS011;5574;48.786;10.120;2023-04-09T11:25:20;6.13;;;5.53;;
11042;SDS011;5574;48.786;10.120;2023-04-09T11:27:48;6.53;;;5.87;;
11042;SDS011;5574;48.786;10.120;2023-04-09T11:30:15;6.87;;;6.17;;
11042;SDS011;5574;48.786;10.120;2023-04-09T11:32:42;6.40;;;5.80;;
11042;SDS011;5574;48.786;10.120;2023-04-09T11:35:09;7.03;;;6.20;;
11042;SDS011;5574;48.786;10.120;2023-04-09T11:37:38;6.50;;;5.50;;
11042;SDS011;5574;48.786;10.120;2023-04-09T11:40:08;5.53;;;5.03;;
11042;SDS011;5574;48.786;10.120;2023-04-09T11:42:40;6.10;;;5.50;;
11042;SDS011;5574;48.786;10.120;2023-04-09T11:45:08;5.50;;;4.80;;
11042;SDS011;5574;48.786;10.120;2023-04-09T11:47:35;6.10;;;5.10;;
11042;SDS011;5574;48.786;10.120;2023-04-09T11:50:04;6.20;;;5.60;;
11042;SDS011;5574;48.786;10.120;2023-04-09T11:52:32;5.73;;;5.23;;
11042;SDS011;5574;48.786;10.120;2023-04-09T11:54:59;5.80;;;5.27;;
11042;SDS011;5574;48.786;10.120;2023-04-09T11:57:36;5.67;;;5.17;;
11042;SDS011;5574;48.786;10.120;2023-04-09T12:00:05;6.13;;;5.53;;
11042;SDS011;5574;48.786;10.120;2023-04-09T12:02:35;5.53;;;5.03;;
11042;SDS011;5574;48.786;10.120;2023-04-09T12:05:04;6.23;;;5.63;;
11042;SDS011;5574;48.786;10.120;2023-04-09T12:07:32;6.10;;;5.50;;
11042;SDS011;5574;48.786;10.120;2023-04-09T12:10:02;5.50;;;5.00;;
11042;SDS011;5574;48.786;10.120;2023-04-09T12:12:30;7.60;;;6.77;;
11042;SDS011;5574;48.786;10.120;2023-04-09T12:14:58;5.83;;;5.23;;
11042;SDS011;5574;48.786;10.120;2023-04-09T12:17:35;6.43;;;5.80;;
11042;SDS011;5574;48.786;10.120;2023-04-09T12:20:01;6.70;;;6.03;;
11042;SDS011;5574;48.786;10.120;2023-04-09T12:22:31;6.93;;;5.13;;
11042;SDS011;5574;48.786;10.120;2023-04-09T12:24:57;6.47;;;5.67;;
11042;SDS011;5574;48.786;10.120;2023-04-09T12:27:24;6.37;;;5.63;;
11042;SDS011;5574;48.786;10.120;2023-04-09T12:29:51;6.13;;;5.63;;
11042;SDS011;5574;48.786;10.120;2023-04-09T12:32:19;6.43;;;5.83;;
11042;SDS011;5574;48.786;10.120;2023-04-09T12:34:45;6.70;;;6.00;;
11042;SDS011;5574;48.786;10.120;2023-04-09T12:37:13;7.50;;;5.97;;
11042;SDS011;5574;48.786;10.120;2023-04-09T12:39:40;6.77;;;6.10;;
11042;SDS011;5574;48.786;10.120;2023-04-09T12:42:07;6.73;;;6.13;;
11042;SDS011;5574;48.786;10.120;2023-04-09T12:44:34;6.53;;;5.93;;
11042;SDS011;5574;48.786;10.120;2023-04-09T12:47:01;6.40;;;5.80;;
11042;SDS011;5574;48.786;10.120;2023-04-09T12:49:29;6.30;;;5.70;;
11042;SDS011;5574;48.786;10.120;2023-04-09T12:51:57;5.67;;;5.17;;
11042;SDS011;5574;48.786;10.120;2023-04-09T12:54:23;6.10;;;5.50;;
11042;SDS011;5574;48.786;10.120;2023-04-09T12:56:50;5.43;;;4.93;;
11042;SDS011;5574;48.786;10.120;2023-04-09T12:59:17;4.90;;;4.50;;
11042;SDS011;5574;48.786;10.120;2023-04-09T13:01:43;4.80;;;4.40;;
11042;SDS011;5574;48.786;10.120;2023-04-09T13:04:10;3.97;;;3.67;;
11042;SDS011;5574;48.786;10.120;2023-04-09T13:06:38;4.23;;;3.83;;
11042;SDS011;5574;48.786;10.120;2023-04-09T13:09:05;4.30;;;4.00;;
11042;SDS011;5574;48.786;10.120;2023-04-09T13:11:32;4.23;;;3.93;;
11042;SDS011;5574;48.786;10.120;2023-04-09T13:13:58;5.07;;;3.63;;
11042;SDS011;5574;48.786;10.120;2023-04-09T13:16:25;4.20;;;3.80;;
11042;SDS011;5574;48.786;10.120;2023-04-09T13:18:52;4.53;;;4.13;;
11042;SDS011;5574;48.786;10.120;2023-04-09T13:21:19;5.10;;;4.60;;
11042;SDS011;5574;48.786;10.120;2023-04-09T13:23:47;4.43;;;4.03;;
11042;SDS011;5574;48.786;10.120;2023-04-09T13:26:13;4.80;;;4.30;;
11042;SDS011;5574;48.786;10.120;2023-04-09T13:28:40;5.33;;;4.83;;
11042;SDS011;5574;48.786;10.120;2023-04-09T13:31:08;5.00;;;4.53;;
11042;SDS011;5574;48.786;10.120;2023-04-09T13:33:34;4.97;;;4.47;;
11042;SDS011;5574;48.786;10.120;2023-04-09T13:36:01;4.50;;;4.10;;
11042;SDS011;5574;48.786;10.120;2023-04-09T13:38:27;4.47;;;3.83;;
11042;SDS011;5574;48.786;10.120;2023-04-09T13:40:55;4.30;;;3.90;;
11042;SDS011;5574;48.786;10.120;2023-04-09T13:43:22;4.27;;;3.87;;
11042;SDS011;5574;48.786;10.120;2023-04-09T13:45:52;4.83;;;4.43;;
11042;SDS011;5574;48.786;10.120;2023-04-09T13:48:20;5.03;;;4.43;;
11042;SDS011;5574;48.786;10.120;2023-04-09T13:50:46;4.53;;;4.13;;
11042;SDS011;5574;48.786;10.120;2023-04-09T13:53:13;4.80;;;4.30;;
11042;SDS011;5574;48.786;10.120;2023-04-09T13:55:40;4.93;;;4.37;;
11042;SDS011;5574;48.786;10.120;2023-04-09T13:58:08;4.63;;;4.23;;
11042;SDS011;5574;48.786;10.120;2023-04-09T14:00:35;4.83;;;4.43;;
11042;SDS011;5574;48.786;10.120;2023-04-09T14:03:02;5.53;;;5.03;;
11042;SDS011;5574;48.786;10.120;2023-04-09T14:05:29;5.03;;;4.50;;
11042;SDS011;5574;48.786;10.120;2023-04-09T14:07:57;5.13;;;4.63;;
11042;SDS011;5574;48.786;10.120;2023-04-09T14:10:23;4.60;;;4.20;;
11042;SDS011;5574;48.786;10.120;2023-04-09T14:12:51;5.00;;;4.60;;
11042;SDS011;5574;48.786;10.120;2023-04-09T14:15:19;6.40;;;5.80;;
11042;SDS011;5574;48.786;10.120;2023-04-09T14:17:46;6.73;;;5.47;;
11042;SDS011;5574;48.786;10.120;2023-04-09T14:20:12;5.80;;;5.30;;
11042;SDS011;5574;48.786;10.120;2023-04-09T14:22:39;6.40;;;5.80;;
11042;SDS011;5574;48.786;10.120;2023-04-09T14:25:13;5.33;;;4.83;;
11042;SDS011;5574;48.786;10.120;2023-04-09T14:27:43;6.83;;;6.13;;
11042;SDS011;5574;48.786;10.120;2023-04-09T14:30:10;6.17;;;5.57;;
11042;SDS011;5574;48.786;10.120;2023-04-09T14:32:39;5.83;;;5.23;;
11042;SDS011;5574;48.786;10.120;2023-04-09T14:35:07;5.60;;;5.10;;
11042;SDS011;5574;48.786;10.120;2023-04-09T14:37:34;6.10;;;5.10;;
11042;SDS011;5574;48.786;10.120;2023-04-09T14:40:01;6.10;;;5.50;;
11042;SDS011;5574;48.786;10.120;2023-04-09T14:42:28;5.60;;;5.10;;
11042;SDS011;5574;48.786;10.120;2023-04-09T14:44:55;5.87;;;5.37;;
11042;SDS011;5574;48.786;10.120;2023-04-09T14:47:22;6.30;;;5.70;;
11042;SDS011;5574;48.786;10.120;2023-04-09T14:49:50;6.95;;;6.28;;
11042;SDS011;5574;48.786;10.120;2023-04-09T14:52:16;7.40;;;6.70;;
11042;SDS011;5574;48.786;10.120;2023-04-09T14:54:43;6.93;;;6.23;;